Time;durP1;ratioP1;P1;durP2;ratioP2;P2;SDS_P1;SDS_P2;PMS_P1;PMS_P2;Temp;Humidity;BMP_temperature;BMP_pressure;BME280_temperature;BME280_humidity;BME280_pressure;Samples;Min_cycle;Max_cycle;Signal;HPM_P1;HPM_P2
2022/05/19 00:01:59;;;;;;;6.40;4.15;;;13.70;99.90;;;;;;4771634;30;20149;-87
2022/05/19 00:04:25;;;;;;;6.50;4.47;;;13.70;99.90;;;;;;4772301;30;20096;-88
2022/05/19 00:06:51;;;;;;;6.57;4.13;;;13.60;99.90;;;;;;4778909;30;20566;-87
2022/05/19 00:09:21;;;;;;;6.15;3.65;;;13.70;99.90;;;;;;4762020;30;20063;-89
2022/05/19 00:11:48;;;;;;;9.25;4.25;;;13.70;99.90;;;;;;4770925;30;20655;-87
2022/05/19 00:14:14;;;;;;;5.43;3.75;;;13.60;99.90;;;;;;4771586;30;20063;-86
2022/05/19 00:16:40;;;;;;;6.28;4.10;;;13.70;99.90;;;;;;4772024;30;20550;-87
2022/05/19 00:19:06;;;;;;;5.15;4.05;;;13.70;99.90;;;;;;4771024;30;20090;-89
2022/05/19 00:21:33;;;;;;;7.10;4.18;;;13.80;99.90;;;;;;4755729;30;20059;-89
2022/05/19 00:23:58;;;;;;;8.20;4.43;;;13.80;99.90;;;;;;4777981;30;20055;-88
2022/05/19 00:26:24;;;;;;;6.10;4.30;;;14.30;99.90;;;;;;4771877;30;20058;-86
2022/05/19 00:28:50;;;;;;;6.32;4.38;;;13.90;99.90;;;;;;4755527;30;20055;-90
2022/05/19 00:31:16;;;;;;;7.78;4.68;;;13.80;99.90;;;;;;4759268;30;20062;-87
2022/05/19 00:33:43;;;;;;;8.30;4.68;;;14.20;99.90;;;;;;4756966;30;20050;-88
2022/05/19 00:36:17;;;;;;;8.60;6.18;;;13.90;99.90;;;;;;4771262;30;20062;-86
2022/05/19 00:38:43;;;;;;;9.80;5.72;;;13.80;99.90;;;;;;4762350;30;20055;-88
2022/05/19 00:41:10;;;;;;;6.70;4.68;;;13.80;99.90;;;;;;4754730;30;20062;-89
2022/05/19 00:43:40;;;;;;;9.88;4.88;;;13.80;99.90;;;;;;4755225;30;20055;-89
2022/05/19 00:46:25;;;;;;;11.73;5.60;;;14.40;99.90;;;;;;4771541;30;20051;-88
2022/05/19 00:49:06;;;;;;;7.72;5.55;;;13.80;99.90;;;;;;4770728;30;20051;-87
2022/05/19 00:51:40;;;;;;;10.35;6.32;;;13.80;99.90;;;;;;4761908;30;20052;-86
2022/05/19 00:54:09;;;;;;;9.18;5.63;;;13.90;99.90;;;;;;4770501;30;20059;-90
2022/05/19 00:56:47;;;;;;;8.65;6.05;;;13.90;99.90;;;;;;4770868;30;20076;-88
2022/05/19 00:59:20;;;;;;;9.00;6.18;;;13.90;99.90;;;;;;4764000;30;20422;-89
2022/05/19 01:01:46;;;;;;;8.27;4.82;;;13.90;99.90;;;;;;4781582;30;20051;-88
2022/05/19 01:04:28;;;;;;;10.75;6.22;;;13.90;99.90;;;;;;4774447;30;20052;-87
2022/05/19 01:06:57;;;;;;;7.72;5.50;;;13.80;99.90;;;;;;4770960;30;20503;-88
2022/05/19 01:09:24;;;;;;;10.10;6.13;;;13.80;99.90;;;;;;4770668;30;20117;-87
2022/05/19 01:11:54;;;;;;;11.80;6.32;;;13.80;99.90;;;;;;4778222;30;20503;-90
2022/05/19 01:14:20;;;;;;;10.32;6.15;;;13.80;99.90;;;;;;4761473;30;20564;-87
2022/05/19 01:16:47;;;;;;;10.52;6.57;;;13.70;99.90;;;;;;4770206;30;20056;-87
2022/05/19 01:19:44;;;;;;;10.63;6.53;;;13.70;99.90;;;;;;4770466;30;20896;-88
2022/05/19 01:22:21;;;;;;;9.30;6.63;;;13.70;99.90;;;;;;4748619;30;20091;-88
2022/05/19 01:25:02;;;;;;;9.38;6.95;;;13.70;99.90;;;;;;4770149;30;20131;-90
2022/05/19 01:27:27;;;;;;;10.18;7.22;;;13.70;99.90;;;;;;4754472;30;20494;-87
2022/05/19 01:29:54;;;;;;;11.52;6.80;;;13.70;99.90;;;;;;4777332;30;20139;-86
2022/05/19 01:32:26;;;;;;;10.15;7.00;;;13.80;99.90;;;;;;4770078;30;20117;-86
2022/05/19 01:34:52;;;;;;;10.05;7.32;;;13.80;99.90;;;;;;4754954;30;20472;-88
2022/05/19 01:37:18;;;;;;;13.50;6.90;;;13.70;99.90;;;;;;4764528;30;20086;-87
2022/05/19 01:39:47;;;;;;;9.15;5.78;;;13.80;99.90;;;;;;4774064;30;20094;-88
2022/05/19 01:42:24;;;;;;;9.45;5.97;;;14.00;99.90;;;;;;4770254;30;20052;-88
2022/05/19 01:45:10;;;;;;;10.80;6.35;;;13.70;99.90;;;;;;4739596;30;20070;-85
2022/05/19 01:48:03;;;;;;;11.50;6.90;;;13.70;99.90;;;;;;4764446;30;20537;-85
2022/05/19 01:50:56;;;;;;;12.25;7.38;;;13.70;99.90;;;;;;4776307;30;20059;-86
2022/05/19 01:53:31;;;;;;;12.00;7.88;;;13.70;99.90;;;;;;4738530;30;20070;-87
2022/05/19 01:56:25;;;;;;;12.32;8.35;;;13.60;99.90;;;;;;4769817;30;20051;-87
2022/05/19 01:59:11;;;;;;;11.43;7.28;;;13.60;99.90;;;;;;4769794;30;20058;-87
2022/05/19 02:01:40;;;;;;;11.25;7.30;;;13.60;99.90;;;;;;4754377;30;20059;-86
2022/05/19 02:04:18;;;;;;;12.63;8.73;;;13.60;99.90;;;;;;4769811;30;20050;-86
2022/05/19 02:06:46;;;;;;;12.27;8.32;;;13.60;99.90;;;;;;4760415;30;20060;-87
2022/05/19 02:09:28;;;;;;;11.68;8.20;;;13.50;99.90;;;;;;4769769;30;20051;-87
2022/05/19 02:11:57;;;;;;;11.80;7.10;;;13.50;99.90;;;;;;4775965;30;20098;-87
2022/05/19 02:14:29;;;;;;;9.85;6.38;;;13.50;99.90;;;;;;4776874;30;20059;-87
2022/05/19 02:16:55;;;;;;;10.52;7.28;;;13.60;99.90;;;;;;4753456;30;20066;-86
2022/05/19 02:19:26;;;;;;;12.65;8.15;;;13.60;99.90;;;;;;4769417;30;20410;-86
2022/05/19 02:21:53;;;;;;;14.77;7.78;;;13.60;99.90;;;;;;4771449;30;20055;-86
2022/05/19 02:24:23;;;;;;;12.82;6.85;;;13.60;99.90;;;;;;4769174;30;20055;-86
2022/05/19 02:26:48;;;;;;;10.05;7.30;;;13.70;99.90;;;;;;4769059;30;20406;-86
2022/05/19 02:29:22;;;;;;;10.85;7.03;;;14.10;99.90;;;;;;4753156;30;20063;-86
2022/05/19 02:31:49;;;;;;;11.45;8.05;;;14.00;99.90;;;;;;4753352;30;20056;-86
2022/05/19 02:34:15;;;;;;;9.75;6.70;;;13.70;99.90;;;;;;4768993;30;20434;-87
2022/05/19 02:36:41;;;;;;;8.25;5.75;;;13.80;99.90;;;;;;4769553;30;20070;-86
2022/05/19 02:39:08;;;;;;;7.40;5.10;;;13.80;99.90;;;;;;4754838;30;20506;-86
2022/05/19 02:41:35;;;;;;;11.68;6.70;;;13.90;99.90;;;;;;4758852;30;20062;-86
2022/05/19 02:44:00;;;;;;;10.30;7.22;;;13.90;99.90;;;;;;4752830;30;20086;-87
2022/05/19 02:46:26;;;;;;;12.40;7.35;;;13.90;99.90;;;;;;4753265;30;20117;-87
2022/05/19 02:48:52;;;;;;;10.50;7.28;;;13.90;99.90;;;;;;4753197;30;20063;-86
2022/05/19 02:51:18;;;;;;;10.60;7.05;;;13.90;99.90;;;;;;4753516;30;20091;-86
2022/05/19 02:53:43;;;;;;;10.30;7.40;;;13.90;99.90;;;;;;4752923;30;20139;-86
2022/05/19 02:56:09;;;;;;;11.45;6.63;;;13.90;99.90;;;;;;4769364;30;20104;-87
2022/05/19 02:58:35;;;;;;;10.57;6.40;;;13.90;99.90;;;;;;4753166;30;20056;-87
2022/05/19 03:01:01;;;;;;;10.30;6.47;;;14.00;99.90;;;;;;4769635;30;20595;-87
2022/05/19 03:03:26;;;;;;;11.02;6.55;;;14.00;99.90;;;;;;4738641;30;20068;-86
2022/05/19 03:05:52;;;;;;;9.25;6.50;;;14.00;99.90;;;;;;4753515;30;20075;-87
2022/05/19 03:08:18;;;;;;;9.95;6.25;;;14.00;99.90;;;;;;4769130;30;20105;-86
2022/05/19 03:10:44;;;;;;;9.13;6.60;;;14.00;99.90;;;;;;4752885;30;20071;-87
2022/05/19 03:13:21;;;;;;;8.25;6.00;;;14.00;99.90;;;;;;4769109;30;20095;-86
2022/05/19 03:15:47;;;;;;;10.30;6.97;;;14.00;99.90;;;;;;4760417;30;20464;-86
2022/05/19 03:18:14;;;;;;;9.60;6.80;;;14.10;99.90;;;;;;4753054;30;20059;-86
2022/05/19 03:20:40;;;;;;;11.95;7.75;;;14.10;99.90;;;;;;4768869;30;20067;-86
2022/05/19 03:23:06;;;;;;;7.40;4.85;;;14.10;99.90;;;;;;4769823;30;20051;-86
2022/05/19 03:25:32;;;;;;;11.07;5.70;;;14.10;99.90;;;;;;4759672;30;20130;-89
2022/05/19 03:27:58;;;;;;;9.60;5.88;;;14.20;99.90;;;;;;4759609;30;20059;-87
2022/05/19 03:30:24;;;;;;;8.85;5.50;;;14.30;99.90;;;;;;4752648;30;20068;-88
2022/05/19 03:32:50;;;;;;;9.18;6.78;;;14.40;99.90;;;;;;4769266;30;20587;-86
2022/05/19 03:35:16;;;;;;;10.07;6.00;;;14.30;99.90;;;;;;4756670;30;20047;-86
2022/05/19 03:37:43;;;;;;;9.35;5.60;;;14.40;99.90;;;;;;4771855;30;20059;-87
2022/05/19 03:40:11;;;;;;;10.00;6.30;;;14.40;99.90;;;;;;4774968;30;20481;-86
2022/05/19 03:42:37;;;;;;;11.15;7.75;;;14.50;99.90;;;;;;4752915;30;20056;-86
2022/05/19 03:45:04;;;;;;;13.07;8.13;;;14.50;99.90;;;;;;4753103;30;20080;-87
2022/05/19 03:47:30;;;;;;;12.77;7.82;;;14.50;99.90;;;;;;4754851;30;20060;-87
2022/05/19 03:49:56;;;;;;;10.75;7.13;;;14.60;99.90;;;;;;4755593;30;20067;-86
2022/05/19 03:52:22;;;;;;;11.82;6.43;;;14.60;99.90;;;;;;4778904;30;20055;-87
2022/05/19 03:54:48;;;;;;;8.93;6.03;;;14.70;99.90;;;;;;4772090;30;20052;-86
2022/05/19 03:57:16;;;;;;;9.43;6.10;;;14.70;99.90;;;;;;4771700;30;20135;-87
2022/05/19 03:59:41;;;;;;;10.23;6.65;;;14.80;99.90;;;;;;4771770;30;20059;-86
2022/05/19 04:02:07;;;;;;;13.07;7.05;;;14.80;99.90;;;;;;4755955;30;20052;-88
2022/05/19 04:04:33;;;;;;;16.95;10.25;;;15.00;99.90;;;;;;4741231;30;20450;-87
2022/05/19 04:06:59;;;;;;;16.45;9.43;;;14.90;99.90;;;;;;4755860;30;20059;-87
2022/05/19 04:09:25;;;;;;;10.88;6.43;;;14.90;99.90;;;;;;4770929;30;20094;-86
2022/05/19 04:11:51;;;;;;;10.73;6.05;;;15.00;99.90;;;;;;4755409;30;20495;-87
2022/05/19 04:14:17;;;;;;;10.98;6.38;;;15.00;99.90;;;;;;4771999;30;20055;-87
2022/05/19 04:16:43;;;;;;;10.85;6.45;;;15.00;99.90;;;;;;4771251;30;20066;-88
2022/05/19 04:19:09;;;;;;;11.40;7.00;;;15.00;99.90;;;;;;4771162;30;20048;-86
2022/05/19 04:21:34;;;;;;;10.32;6.32;;;15.10;99.90;;;;;;4747181;30;20417;-88
2022/05/19 04:24:00;;;;;;;23.67;13.90;;;15.20;99.90;;;;;;4755860;30;20055;-87
2022/05/19 04:26:27;;;;;;;20.88;10.90;;;15.20;99.90;;;;;;4755608;30;20395;-87
2022/05/19 04:28:53;;;;;;;15.65;10.10;;;15.20;99.90;;;;;;4777822;29;20470;-86
2022/05/19 04:31:18;;;;;;;16.85;10.30;;;15.30;99.90;;;;;;4755259;30;20066;-86
2022/05/19 04:33:44;;;;;;;13.88;9.35;;;15.40;99.90;;;;;;4770864;30;20116;-87
2022/05/19 04:36:10;;;;;;;10.00;6.55;;;15.80;99.90;;;;;;4771720;30;20052;-89
2022/05/19 04:38:36;;;;;;;19.55;11.00;;;15.40;99.90;;;;;;4761747;30;20224;-88
2022/05/19 04:41:04;;;;;;;16.15;9.85;;;15.50;99.90;;;;;;4754927;30;20068;-88
2022/05/19 04:43:30;;;;;;;13.65;8.13;;;15.50;99.90;;;;;;4740796;30;20150;-86
2022/05/19 04:45:56;;;;;;;12.20;7.68;;;15.50;99.90;;;;;;4755510;30;20097;-87
2022/05/19 04:48:23;;;;;;;19.95;11.50;;;15.50;99.90;;;;;;4773673;30;20101;-88
2022/05/19 04:50:53;;;;;;;17.38;10.95;;;15.60;99.90;;;;;;4770627;30;20092;-87
2022/05/19 04:53:19;;;;;;;16.52;11.07;;;15.70;99.90;;;;;;4754473;30;20063;-86
2022/05/19 04:55:45;;;;;;;17.10;9.98;;;15.70;99.90;;;;;;4776393;30;20061;-88
2022/05/19 04:58:11;;;;;;;13.48;7.13;;;15.80;99.90;;;;;;4772190;29;20051;-86
2022/05/19 05:00:37;;;;;;;10.82;7.03;;;15.90;99.90;;;;;;4754497;30;20140;-88
2022/05/19 05:03:04;;;;;;;7.82;5.00;;;16.00;99.90;;;;;;4771557;30;20051;-87
2022/05/19 05:05:30;;;;;;;16.67;10.25;;;16.00;99.90;;;;;;4754874;30;20121;-87
2022/05/19 05:07:55;;;;;;;8.90;5.45;;;16.10;99.90;;;;;;4754778;30;20051;-90
2022/05/19 05:10:21;;;;;;;10.13;6.18;;;16.30;99.90;;;;;;4770118;30;20410;-87
2022/05/19 05:12:47;;;;;;;10.63;6.35;;;16.30;99.90;;;;;;4754835;30;20124;-87
2022/05/19 05:15:12;;;;;;;9.20;5.93;;;16.30;99.90;;;;;;4777354;30;20063;-87
2022/05/19 05:17:38;;;;;;;9.93;5.78;;;16.40;99.90;;;;;;4773570;30;20054;-88
2022/05/19 05:20:07;;;;;;;10.80;5.75;;;16.50;99.90;;;;;;4759189;30;20056;-88
2022/05/19 05:22:35;;;;;;;9.23;5.40;;;16.50;99.90;;;;;;4770149;30;20062;-86
2022/05/19 05:25:06;;;;;;;11.27;6.85;;;16.50;99.90;;;;;;4755165;30;20062;-86
2022/05/19 05:27:32;;;;;;;12.82;7.93;;;16.60;99.90;;;;;;4739597;30;20067;-87
2022/05/19 05:29:58;;;;;;;10.23;6.82;;;16.70;99.90;;;;;;4760950;30;20048;-88
2022/05/19 05:32:24;;;;;;;11.25;6.72;;;16.70;99.90;;;;;;4755292;30;20146;-89
2022/05/19 05:34:49;;;;;;;16.77;11.90;;;16.80;99.90;;;;;;4770224;30;20079;-88
2022/05/19 05:37:15;;;;;;;23.20;12.82;;;16.80;99.90;;;;;;4770851;30;20060;-88
2022/05/19 05:39:41;;;;;;;23.35;14.48;;;16.90;99.90;;;;;;4762405;30;20060;-87
2022/05/19 05:42:07;;;;;;;16.50;10.50;;;17.00;99.90;;;;;;4776656;30;20048;-88
2022/05/19 05:44:32;;;;;;;16.42;8.93;;;17.00;99.90;;;;;;4777266;30;20051;-87
2022/05/19 05:46:58;;;;;;;17.40;10.98;;;17.10;99.90;;;;;;4764541;30;20056;-87
2022/05/19 05:49:24;;;;;;;23.88;15.48;;;17.20;99.90;;;;;;4774874;30;20071;-89
2022/05/19 05:51:50;;;;;;;29.42;18.02;;;17.40;99.90;;;;;;4754171;30;20048;-87
2022/05/19 05:54:16;;;;;;;30.77;19.05;;;17.50;99.90;;;;;;4760630;30;20056;-89
2022/05/19 05:56:42;;;;;;;31.08;19.42;;;17.70;99.90;;;;;;4753947;30;20083;-88
2022/05/19 05:59:07;;;;;;;35.95;23.42;;;17.90;99.90;;;;;;4739669;30;20047;-88
2022/05/19 06:01:33;;;;;;;27.05;16.17;;;18.10;99.90;;;;;;4769842;30;20142;-87
2022/05/19 06:03:59;;;;;;;25.20;14.82;;;18.30;99.90;;;;;;4753671;30;20063;-90
2022/05/19 06:06:25;;;;;;;21.27;15.25;;;18.40;99.90;;;;;;4753815;30;20070;-88
2022/05/19 06:08:51;;;;;;;26.38;16.42;;;18.70;99.90;;;;;;4753045;30;20490;-87
2022/05/19 06:11:17;;;;;;;18.42;11.55;;;18.80;99.90;;;;;;4753766;30;20048;-89
2022/05/19 06:13:44;;;;;;;18.10;10.98;;;18.90;99.90;;;;;;4739715;30;20066;-88
2022/05/19 06:16:10;;;;;;;14.45;9.05;;;19.00;99.90;;;;;;4754115;30;20081;-89
2022/05/19 06:18:38;;;;;;;9.25;5.97;;;19.00;99.90;;;;;;4753483;30;20505;-89
2022/05/19 06:21:05;;;;;;;24.10;13.57;;;19.10;99.90;;;;;;4753977;30;20064;-89
2022/05/19 06:23:32;;;;;;;16.13;9.48;;;19.20;99.90;;;;;;4757159;30;20067;-88
2022/05/19 06:25:59;;;;;;;29.98;18.83;;;19.20;99.90;;;;;;4771732;30;20060;-90
2022/05/19 06:29:06;;;;;;;29.13;18.65;;;19.30;99.90;;;;;;4988821;24;20048;-93
2022/05/19 06:31:38;;;;;;;18.42;12.57;;;19.40;99.90;;;;;;4769563;30;20055;-91
2022/05/19 06:34:10;;;;;;;22.77;14.38;;;19.50;99.90;;;;;;4756124;30;20120;-91
2022/05/19 06:36:38;;;;;;;23.50;14.52;;;19.50;99.90;;;;;;4755700;30;20195;-91
2022/05/19 06:39:07;;;;;;;23.70;16.50;;;19.60;99.90;;;;;;4741795;30;20051;-90
2022/05/19 06:45:23;;;;;;;;;;;;;;;;;;;;;
2022/05/19 07:00:46;;;;;;;;;;;19.60;99.90;;;;;;5035928;24;20410;-91
2022/05/19 07:09:22;;;;;;;15.48;10.38;;;19.40;99.90;;;;;;5375001;24;20059;-89
2022/05/19 07:11:48;;;;;;;17.45;12.45;;;19.30;99.90;;;;;;4752570;30;20052;-89
2022/05/19 07:14:39;;;;;;;;;;;;;;;;;;;;;
2022/05/19 07:17:13;;;;;;;10.82;7.70;;;19.10;99.90;;;;;;4767923;30;20052;-89
2022/05/19 07:22:30;;;;;;;16.73;11.23;;;18.90;99.90;;;;;;4778038;30;20506;-90
2022/05/19 07:24:59;;;;;;;18.77;11.63;;;18.90;99.90;;;;;;4775794;30;20047;-91
2022/05/19 07:27:42;;;;;;;18.67;9.10;;;18.90;99.90;;;;;;4790217;29;20059;-91
2022/05/19 07:30:10;;;;;;;11.35;6.65;;;18.80;99.90;;;;;;4785160;29;20047;-92
2022/05/19 07:32:41;;;;;;;18.05;6.95;;;18.90;99.90;;;;;;4780971;30;20051;-92
2022/05/19 07:35:10;;;;;;;10.55;4.53;;;18.90;99.90;;;;;;4785809;30;20051;-91
2022/05/19 07:37:36;;;;;;;9.10;3.90;;;18.80;99.90;;;;;;4774482;30;20059;-88
2022/05/19 07:40:04;;;;;;;7.30;3.45;;;18.70;99.90;;;;;;4789710;30;20051;-90
2022/05/19 07:42:30;;;;;;;10.80;4.35;;;18.80;99.90;;;;;;4774397;30;20510;-87
2022/05/19 07:44:56;;;;;;;5.78;2.75;;;18.70;99.90;;;;;;4780863;29;20094;-90
2022/05/19 07:47:22;;;;;;;5.80;2.42;;;18.70;99.90;;;;;;4790749;29;20048;-87
2022/05/19 07:49:49;;;;;;;6.30;2.10;;;18.60;99.90;;;;;;4773268;30;20066;-89
2022/05/19 07:52:15;;;;;;;5.93;2.40;;;18.50;99.90;;;;;;4773647;30;20050;-90
2022/05/19 07:54:40;;;;;;;8.07;2.85;;;18.50;99.90;;;;;;4758582;30;20063;-88
2022/05/19 07:57:07;;;;;;;6.35;3.17;;;18.50;99.90;;;;;;4774151;29;20047;-89
2022/05/19 07:59:33;;;;;;;4.65;2.00;;;18.50;99.90;;;;;;4779604;29;20509;-86
2022/05/19 08:01:58;;;;;;;4.18;2.00;;;18.50;99.90;;;;;;4821709;24;20062;-86
2022/05/19 08:04:25;;;;;;;5.93;2.17;;;18.60;99.90;;;;;;4773836;30;20055;-90
2022/05/19 08:06:52;;;;;;;7.45;3.03;;;18.60;99.90;;;;;;4773952;30;20081;-90
2022/05/19 08:12:04;;;;;;;4.82;1.95;;;18.60;99.90;;;;;;4789911;30;20054;-89
2022/05/19 08:17:23;;;;;;;3.80;1.63;;;18.60;99.90;;;;;;4791535;29;20063;-87
2022/05/19 08:19:48;;;;;;;2.60;1.60;;;18.70;99.90;;;;;;4789998;29;20107;-86
2022/05/19 08:22:14;;;;;;;4.15;1.80;;;18.70;99.90;;;;;;4773601;30;20047;-85
2022/05/19 08:24:46;;;;;;;3.63;1.58;;;18.80;99.90;;;;;;4789011;30;20059;-87
2022/05/19 08:27:12;;;;;;;5.18;2.17;;;19.00;99.90;;;;;;4772691;29;20062;-85
2022/05/19 08:29:38;;;;;;;4.68;2.53;;;19.00;99.90;;;;;;4788868;29;20063;-86
2022/05/19 08:32:04;;;;;;;4.70;2.15;;;19.00;99.90;;;;;;4772536;30;20482;-87
2022/05/19 08:34:30;;;;;;;4.13;2.08;;;19.00;99.90;;;;;;4772757;30;20070;-87
2022/05/19 08:36:56;;;;;;;4.68;1.90;;;19.10;99.90;;;;;;4789269;29;20047;-88
2022/05/19 08:39:24;;;;;;;6.20;1.60;;;19.10;99.90;;;;;;4773273;30;20146;-88
2022/05/19 08:41:54;;;;;;;3.53;1.73;;;19.10;99.90;;;;;;4795998;29;20043;-86
2022/05/19 08:44:24;;;;;;;4.50;1.80;;;19.10;99.90;;;;;;4772808;30;20063;-87
2022/05/19 08:46:52;;;;;;;8.55;3.58;;;19.20;99.90;;;;;;4772909;29;20055;-88
2022/05/19 08:50:06;;;;;;;6.15;3.00;;;19.20;99.90;;;;;;4777801;30;20069;-88
2022/05/19 08:52:41;;;;;;;6.47;3.25;;;19.20;99.90;;;;;;4734370;30;20056;-88
2022/05/19 08:55:11;;;;;;;7.90;3.50;;;19.30;99.90;;;;;;4736704;30;20063;-87
2022/05/19 08:58:15;;;;;;;5.25;2.67;;;19.30;99.90;;;;;;4736637;30;20052;-87
2022/05/19 09:00:47;;;;;;;4.78;2.60;;;19.30;99.90;;;;;;4734683;30;20060;-83
2022/05/19 09:03:19;;;;;;;4.50;1.98;;;19.40;99.90;;;;;;4752086;30;20064;-87
2022/05/19 09:06:00;;;;;;;4.97;2.40;;;19.60;99.90;;;;;;4751310;30;20056;-89
2022/05/19 09:08:49;;;;;;;6.80;3.20;;;19.70;99.90;;;;;;4751296;30;20498;-87
2022/05/19 09:11:21;;;;;;;5.97;3.28;;;19.90;99.90;;;;;;4751082;30;20083;-86
2022/05/19 09:14:00;;;;;;;5.45;2.72;;;20.00;99.90;;;;;;4736465;30;20071;-86
2022/05/19 09:16:31;;;;;;;5.38;3.05;;;20.20;99.90;;;;;;4730666;30;20072;-87
2022/05/19 09:19:16;;;;;;;5.57;2.20;;;20.40;99.90;;;;;;4756508;30;20043;-86
2022/05/19 09:21:44;;;;;;;7.22;2.25;;;20.50;99.90;;;;;;4736311;30;20147;-87
2022/05/19 09:24:11;;;;;;;6.28;2.65;;;20.60;99.90;;;;;;4736133;30;20564;-87
2022/05/19 09:26:47;;;;;;;6.80;4.75;;;20.80;99.90;;;;;;4736279;30;20056;-89
2022/05/19 09:29:36;;;;;;;6.32;3.15;;;20.90;99.90;;;;;;4758391;30;20091;-89
2022/05/19 09:32:23;;;;;;;10.43;3.88;;;21.00;99.90;;;;;;4772562;29;20055;-87
2022/05/19 09:34:51;;;;;;;6.10;3.22;;;21.20;99.90;;;;;;4766310;29;20073;-86
2022/05/19 09:37:40;;;;;;;6.07;3.13;;;21.30;99.90;;;;;;4788113;29;20115;-86
2022/05/19 09:40:12;;;;;;;8.70;4.22;;;21.40;99.90;;;;;;4787677;30;20055;-86
2022/05/19 09:43:06;;;;;;;5.38;3.13;;;21.50;99.90;;;;;;4772720;30;20063;-87
2022/05/19 09:45:38;;;;;;;4.43;2.28;;;21.60;99.90;;;;;;4787670;30;20056;-88
2022/05/19 09:48:07;;;;;;;7.40;2.67;;;21.70;99.90;;;;;;4783799;29;20126;-88
2022/05/19 09:50:45;;;;;;;9.85;2.88;;;21.90;99.90;;;;;;4750936;29;20129;-88
2022/05/19 09:53:21;;;;;;;5.75;2.40;;;22.00;99.90;;;;;;4770606;30;20130;-87
2022/05/19 09:56:00;;;;;;;6.13;2.53;;;22.10;99.90;;;;;;4793191;29;20452;-86
2022/05/19 09:58:31;;;;;;;6.20;2.00;;;22.20;99.90;;;;;;4771182;30;20125;-86
2022/05/19 10:01:06;;;;;;;2.63;1.30;;;22.50;99.90;;;;;;4787976;30;20055;-87
2022/05/19 10:03:44;;;;;;;2.92;2.00;;;22.60;99.90;;;;;;4799372;29;20058;-88
2022/05/19 10:06:18;;;;;;;4.75;2.03;;;22.70;99.90;;;;;;4805225;29;20496;-86
2022/05/19 10:08:48;;;;;;;4.43;1.45;;;22.90;99.90;;;;;;4802117;29;20047;-87
2022/05/19 10:11:13;;;;;;;8.30;1.92;;;23.00;99.90;;;;;;4775228;29;20477;-87
2022/05/19 10:13:48;;;;;;;5.30;2.00;;;23.10;99.90;;;;;;4785736;30;20075;-87
2022/05/19 10:16:14;;;;;;;;;;;23.20;99.90;;;;;;4788116;29;20051;-87
2022/05/19 10:18:52;;;;;;;4.65;1.88;;;23.20;99.90;;;;;;4797480;29;19933;-87
2022/05/19 10:21:33;;;;;;;3.95;2.08;;;23.30;99.90;;;;;;4785188;29;20054;-89
2022/05/19 10:24:19;;;;;;;2.40;1.40;;;23.40;99.90;;;;;;4790085;29;20061;-89
2022/05/19 10:31:03;;;;;;;3.15;1.83;;;23.50;99.90;;;;;;4778722;29;20079;-87
2022/05/19 10:33:19;;;;;;;;;;;23.40;99.90;;;;;;4790919;29;20055;-86
2022/05/19 10:36:03;;;;;;;3.47;2.00;;;23.50;99.90;;;;;;4753952;30;19926;-89
2022/05/19 10:38:42;;;;;;;5.85;1.85;;;23.70;99.90;;;;;;4739564;30;20430;-88
2022/05/19 10:41:11;;;;;;;4.15;1.80;;;23.90;99.90;;;;;;4753770;30;20063;-87
2022/05/19 10:43:45;;;;;;;3.45;1.70;;;24.10;99.90;;;;;;4754782;30;20132;-89
2022/05/19 10:46:14;;;;;;;2.20;1.60;;;24.30;99.90;;;;;;4752312;30;20062;-88
2022/05/19 10:49:09;;;;;;;5.35;1.90;;;24.60;99.90;;;;;;4756121;30;20064;-87
2022/05/19 11:08:51;;;;;;;6.32;2.60;;;24.90;99.90;;;;;;4962258;24;20059;-90
2022/05/19 11:15:06;;;;;;;4.30;2.30;;;25.80;99.90;;;;;;4771382;30;20055;-87
2022/05/19 11:17:57;;;;;;;5.10;3.20;;;26.10;99.90;;;;;;4737853;30;20056;-87
2022/05/19 11:21:03;;;;;;;5.22;2.97;;;26.30;99.90;;;;;;4738489;30;20060;-87
2022/05/19 11:23:36;;;;;;;4.97;2.60;;;26.40;99.90;;;;;;4753499;30;20056;-87
2022/05/19 11:26:25;;;;;;;6.40;2.35;;;26.60;99.90;;;;;;4741961;30;20055;-86
2022/05/19 11:29:06;;;;;;;2.78;1.67;;;26.60;99.90;;;;;;4755955;30;20611;-87
2022/05/19 11:31:56;;;;;;;4.57;2.85;;;26.70;99.90;;;;;;4770913;29;20391;-87
2022/05/19 11:34:33;;;;;;;3.15;1.20;;;26.90;99.90;;;;;;4755980;30;20160;-87
2022/05/19 11:44:27;;;;;;;3.13;2.10;;;26.70;99.90;;;;;;4770679;30;20632;-86
2022/05/19 11:46:59;;;;;;;2.95;1.55;;;26.80;99.90;;;;;;4770493;30;20052;-87
2022/05/19 11:55:46;;;;;;;2.97;1.83;;;26.70;99.90;;;;;;4774245;30;20108;-86
2022/05/19 11:58:22;;;;;;;3.15;1.50;;;26.70;99.90;;;;;;4774150;30;20466;-87
2022/05/19 12:00:58;;;;;;;5.10;1.98;;;26.70;99.90;;;;;;4773754;30;20063;-87
2022/05/19 12:03:43;;;;;;;3.50;1.63;;;26.80;99.90;;;;;;4774447;30;20069;-86
2022/05/19 12:06:12;;;;;;;3.03;1.33;;;26.90;99.90;;;;;;4759531;30;20055;-86
2022/05/19 12:09:03;;;;;;;2.10;1.40;;;26.80;99.90;;;;;;4773170;30;20075;-87
2022/05/19 12:11:44;;;;;;;2.63;1.40;;;26.70;99.90;;;;;;4790128;29;20066;-87
2022/05/19 12:14:25;;;;;;;2.83;1.50;;;26.60;99.90;;;;;;4773955;30;20124;-88
2022/05/19 12:16:55;;;;;;;2.50;1.52;;;26.50;99.90;;;;;;4790095;30;20070;-87
2022/05/19 12:19:30;;;;;;;3.40;1.23;;;26.40;99.90;;;;;;4765409;29;20130;-88
2022/05/19 12:21:56;;;;;;;3.17;1.40;;;26.20;99.90;;;;;;4773223;29;20137;-88
2022/05/19 12:24:46;;;;;;;3.40;1.80;;;26.10;99.90;;;;;;4796860;29;20062;-88
2022/05/19 12:33:31;;;;;;;4.25;2.80;;;25.80;99.90;;;;;;4774854;30;20065;-90
2022/05/19 12:36:12;;;;;;;3.58;2.75;;;25.60;99.90;;;;;;4790932;29;20150;-88
2022/05/19 12:42:48;;;;;;;4.03;3.10;;;25.40;99.90;;;;;;4691212;30;20098;-88
2022/05/19 12:45:44;;;;;;;5.25;2.75;;;25.20;99.90;;;;;;4789269;24;20073;-90
2022/05/19 12:48:43;;;;;;;5.55;3.03;;;25.00;99.90;;;;;;4773115;30;20051;-90
2022/05/19 12:55:30;;;;;;;8.45;3.40;;;25.00;99.90;;;;;;4788182;29;20508;-89
2022/05/19 12:58:57;;;;;;;6.25;4.35;;;24.80;99.90;;;;;;4803504;24;20050;-89
2022/05/19 13:04:29;;;;;;;7.60;2.55;;;24.20;99.90;;;;;;4974934;24;20055;-88
2022/05/19 13:07:05;;;;;;;11.68;4.85;;;23.80;99.90;;;;;;4753247;30;20468;-85
2022/05/19 13:09:34;;;;;;;7.47;3.75;;;23.60;99.90;;;;;;4754680;30;20076;-86
2022/05/19 13:12:20;;;;;;;12.82;5.63;;;23.20;99.90;;;;;;4755677;30;20056;-93
2022/05/19 13:14:55;;;;;;;11.75;5.72;;;23.00;99.90;;;;;;4765158;30;20121;-90
2022/05/19 13:17:35;;;;;;;;;;;22.70;99.90;;;;;;4761896;30;20047;-89
2022/05/19 13:20:04;;;;;;;5.75;3.08;;;22.30;99.90;;;;;;4754448;30;20346;-90
2022/05/19 13:22:34;;;;;;;4.75;2.90;;;21.90;99.90;;;;;;4777068;30;20452;-89
2022/05/19 13:25:10;;;;;;;5.63;3.25;;;21.60;99.90;;;;;;4767072;30;20132;-89
2022/05/19 13:30:32;;;;;;;5.10;2.97;;;21.40;99.90;;;;;;4772824;30;20060;-90
2022/05/19 13:33:17;;;;;;;3.53;2.15;;;21.30;99.90;;;;;;4757773;30;20051;-87
2022/05/19 13:35:46;;;;;;;6.45;2.60;;;21.00;99.90;;;;;;4753907;30;20398;-88
2022/05/19 13:38:20;;;;;;;4.32;1.65;;;20.90;99.90;;;;;;4776515;30;20418;-90
2022/05/19 13:40:47;;;;;;;3.80;1.67;;;20.70;99.90;;;;;;4763770;30;20123;-88
2022/05/19 13:43:23;;;;;;;6.68;2.42;;;20.50;99.90;;;;;;4758551;30;20059;-88
2022/05/19 13:56:33;;;;;;;3.55;1.88;;;20.10;99.90;;;;;;4794773;24;20066;-91
2022/05/19 13:59:31;;;;;;;;;;;;;;;;;;;;;
2022/05/19 14:02:06;;;;;;;2.55;1.40;;;19.70;99.90;;;;;;4722153;30;20049;-93
2022/05/19 14:04:35;;;;;;;9.18;1.63;;;19.70;99.90;;;;;;4723654;30;20095;-92
2022/05/19 14:07:58;;;;;;;2.72;1.38;;;19.70;99.90;;;;;;4737645;30;20411;-90
2022/05/19 14:23:46;;;;;;;;;;;19.10;99.90;;;;;;4340315;24;20059;-88
2022/05/19 15:14:46;;;;;;;3.65;1.77;;;19.00;99.90;;;;;;5200493;24;20063;-90
2022/05/19 15:17:23;;;;;;;4.15;2.05;;;19.10;99.90;;;;;;4775170;29;20063;-89
2022/05/19 15:20:09;;;;;;;2.20;1.40;;;19.20;99.90;;;;;;4776263;30;20059;-88
2022/05/19 15:26:23;;;;;;;2.17;1.20;;;19.30;99.90;;;;;;4781613;30;20062;-92
2022/05/19 15:28:53;;;;;;;3.85;1.60;;;19.40;99.90;;;;;;4779923;29;20058;-89
2022/05/19 15:31:21;;;;;;;3.78;1.42;;;19.40;99.90;;;;;;4772685;30;20078;-88
2022/05/19 15:33:47;;;;;;;2.03;1.20;;;19.50;99.90;;;;;;4771493;30;20063;-86
2022/05/19 15:36:15;;;;;;;2.65;1.20;;;19.50;99.90;;;;;;4780371;29;20079;-86
2022/05/19 15:38:44;;;;;;;2.83;1.45;;;19.70;99.90;;;;;;4781080;29;20059;-87
2022/05/19 15:41:10;;;;;;;2.13;1.25;;;19.90;99.90;;;;;;4772836;29;20055;-90
2022/05/19 15:43:36;;;;;;;4.53;2.10;;;20.20;99.90;;;;;;4791968;30;20055;-88
2022/05/19 15:46:06;;;;;;;4.40;1.98;;;20.60;99.90;;;;;;4775302;30;20055;-86
2022/05/19 15:48:32;;;;;;;3.50;1.73;;;20.90;99.90;;;;;;4777542;29;20055;-90
2022/05/19 15:50:58;;;;;;;2.55;1.45;;;21.10;99.90;;;;;;4797800;29;20523;-87
2022/05/19 15:53:27;;;;;;;2.63;1.38;;;21.50;99.90;;;;;;4791232;30;20055;-91
2022/05/19 15:55:54;;;;;;;1.52;1.00;;;21.70;99.90;;;;;;4775545;30;20163;-84